createdAt,value
2022-11-17T00:05:04.215Z,9.23
2022-11-17T00:15:25.736Z,7.93
2022-11-17T00:25:47.179Z,5.33
2022-11-17T00:36:08.779Z,5.13
2022-11-17T00:46:30.507Z,7.87
2022-11-17T00:56:52.004Z,5.78
2022-11-17T01:07:13.588Z,5.47
2022-11-17T01:17:35.151Z,10.93
2022-11-17T01:27:56.629Z,7.27
2022-11-17T01:38:18.087Z,7.03
2022-11-17T01:48:43.434Z,7.03
2022-11-17T01:59:14.275Z,6.00
2022-11-17T02:09:38.910Z,6.05
2022-11-17T02:20:13.242Z,5.50
2022-11-17T02:30:49.119Z,5.90
2022-11-17T02:41:22.963Z,3.78
2022-11-17T02:51:48.162Z,3.65
2022-11-17T03:02:36.237Z,3.50
2022-11-17T03:13:10.808Z,3.28
2022-11-17T03:23:44.890Z,2.63
2022-11-17T03:34:11.796Z,3.33
2022-11-17T03:44:36.817Z,5.43
2022-11-17T03:54:58.831Z,3.42
2022-11-17T04:15:56.828Z,6.65
2022-11-17T04:26:36.826Z,5.32
2022-11-17T04:36:58.360Z,5.13
2022-11-17T04:47:19.827Z,6.80
2022-11-17T04:57:41.281Z,5.97
2022-11-17T05:08:05.325Z,5.87
2022-11-17T05:18:26.768Z,6.80
2022-11-17T05:28:48.345Z,13.57
2022-11-17T05:39:10.319Z,8.33
2022-11-17T05:59:59.588Z,8.43
2022-11-17T06:10:21.159Z,6.53
2022-11-17T06:20:48.405Z,9.27
2022-11-17T06:31:10.211Z,8.20
2022-11-17T06:41:31.691Z,10.70
2022-11-17T06:51:55.910Z,8.97
2022-11-17T07:02:17.385Z,11.82
2022-11-17T07:12:38.995Z,10.33
2022-11-17T07:23:00.468Z,14.27
2022-11-17T07:33:22.788Z,13.10
2022-11-17T07:43:44.230Z,14.68
2022-11-17T07:54:05.830Z,20.53
2022-11-17T08:04:27.302Z,12.87
2022-11-17T08:14:48.957Z,11.83
2022-11-17T08:25:10.499Z,17.47
2022-11-17T08:35:37.483Z,11.83
2022-11-17T08:45:59.327Z,10.38
2022-11-17T08:56:21.155Z,12.83
2022-11-17T09:06:42.678Z,9.70
2022-11-17T09:17:04.155Z,14.60
2022-11-17T09:27:25.705Z,11.50
2022-11-17T09:37:47.215Z,12.63
2022-11-17T09:48:43.571Z,12.57
2022-11-17T09:59:06.032Z,8.68
2022-11-17T10:09:42.266Z,10.85
2022-11-17T10:20:17.289Z,9.63
2022-11-17T10:30:38.833Z,8.82
2022-11-17T10:41:03.137Z,8.37
2022-11-17T10:51:26.626Z,8.90
2022-11-17T11:01:51.010Z,8.30
2022-11-17T11:12:18.970Z,7.38
2022-11-17T11:22:52.610Z,7.65
2022-11-17T11:33:35.090Z,8.40
2022-11-17T11:44:24.521Z,9.15
2022-11-17T11:55:03.747Z,5.22
2022-11-17T12:05:37.440Z,7.97
2022-11-17T12:16:19.276Z,6.78
2022-11-17T12:37:16.472Z,5.80
2022-11-17T12:47:59.199Z,4.90
2022-11-17T12:58:51.756Z,4.18
2022-11-17T13:09:13.280Z,4.32
2022-11-17T13:19:37.584Z,3.27
2022-11-17T13:30:22.522Z,3.50
2022-11-17T13:40:45.710Z,3.25
2022-11-17T13:51:28.932Z,2.88
2022-11-17T14:02:16.133Z,5.00
2022-11-17T14:12:37.607Z,3.85
2022-11-17T14:23:16.540Z,2.80
2022-11-17T14:33:37.987Z,3.63
2022-11-17T14:43:59.480Z,3.20
2022-11-17T14:54:21.110Z,2.67
2022-11-17T15:04:50.669Z,7.77
2022-11-17T15:15:12.832Z,3.10
2022-11-17T15:25:34.341Z,2.53
2022-11-17T15:36:03.453Z,2.67
2022-11-17T15:46:25.030Z,2.22
2022-11-17T15:56:46.540Z,3.47
2022-11-17T16:07:08.166Z,4.67
2022-11-17T16:17:29.681Z,4.07
2022-11-17T16:27:51.163Z,3.40
2022-11-17T16:38:14.899Z,2.43
2022-11-17T16:48:36.349Z,3.63
2022-11-17T16:58:58.760Z,4.27
2022-11-17T17:09:24.903Z,2.90
2022-11-17T17:19:49.205Z,3.75
2022-11-17T17:30:11.354Z,4.07
2022-11-17T17:40:33.954Z,3.35
2022-11-17T17:51:07.944Z,6.53
2022-11-17T18:01:33.182Z,4.90
2022-11-17T18:11:54.769Z,4.90
2022-11-17T18:22:16.297Z,4.60
2022-11-17T18:32:37.754Z,3.97
2022-11-17T18:43:01.493Z,5.73
2022-11-17T18:53:22.945Z,5.43
2022-11-17T19:03:46.579Z,4.87
2022-11-17T19:14:08.068Z,5.22
2022-11-17T19:24:29.525Z,5.37
2022-11-17T19:34:51.851Z,5.70
2022-11-17T19:45:13.444Z,6.55
2022-11-17T19:55:35.030Z,3.30
2022-11-17T20:06:00.031Z,6.83
2022-11-17T20:16:26.466Z,6.05
2022-11-17T20:26:49.039Z,7.30
2022-11-17T20:37:10.496Z,5.40
2022-11-17T20:47:32.042Z,5.60
2022-11-17T20:57:53.523Z,6.63
2022-11-17T21:08:14.995Z,7.60
2022-11-17T21:18:38.526Z,6.83
2022-11-17T21:29:06.013Z,5.72
2022-11-17T21:39:28.078Z,5.68
2022-11-17T21:49:49.658Z,4.83
2022-11-17T22:00:11.659Z,4.60
2022-11-17T22:20:56.439Z,7.63
2022-11-17T22:31:18.426Z,4.87
2022-11-17T22:52:04.179Z,4.30
2022-11-17T23:02:25.718Z,6.25
2022-11-17T23:12:47.230Z,6.73
2022-11-17T23:23:08.743Z,8.47
2022-11-17T23:33:35.529Z,6.17
2022-11-17T23:43:57.007Z,5.53
2022-11-17T23:54:18.480Z,5.63
